Hlavní strana
METAR-TAF:

METAR-TAF

Letiště :

Kastamonu, Turecko

zeměpisná šířka: 41-19-01N, zeměpisná délka: 33-47-46E, výška: 1073 m

Aktuální stav počasí

Zpráva byla vytvořena před 11 hodinami a 37 minutami, v 12:50 UTC
Severozápadní vítr 8 kt
Teplota 3°C
Vlhkost vzduchu 93%
Tlak 1015 hPa
Viditelnost: 8000 m
Polojasno ve výšce 1600 ft
Oblačno až skoro zataženo ve výšce 3200 ft
Zataženo ve výšce 8000 ft

METAR: LTAL 191250Z 31008KT 8000 SCT016 BKN032 OVC080 03/02 Q1015 RESN

Čas: 03:27 (00:27 UTC)

Předpověď počasí

Zpráva byla vytvořena před 10 hodinami a 47 minutami, v 13:40 UTC
Předpověď platná od 19 v 15 UTC do 19 v 24 UTC
Západoseverozápadní vítr 9 kt
Viditelnost: 8000 m
Skoro jasno ve výšce 1000 ft
Oblačno až skoro zataženo ve výšce 2500 ft
Oblačno až skoro zataženo ve výšce 7000 ft

TAF: LTAL 191340Z 1915/1924 30009KT 8000 FEW010 BKN025 BKN070

Stav a předpovědi počasí z více než 4 000 letišť (zprávy METAR a TAF).

Červené a žluté tečky na mapě představují dostupné meteorologické stanice.

Když kurzor umístíte na tečku, zobrazí se název stanice.

Pak kliknutím zobrazíte stav a předpověď počasí.

Chcete-li změnit mapu, kliknutím na zelené tlačítko se znaménkem +mapu přiblížíte, kliknutím na zelené tlačítko se znaménkem – mapu oddálíte a kliknutím na zelené šipky přejdete na sousední mapy.


METAR-TAF: